Time;durP1;ratioP1;P1;durP2;ratioP2;P2;SDS_P1;SDS_P2;PMS_P1;PMS_P2;Temp;Humidity;BMP_temperature;BMP_pressure;BME280_temperature;BME280_humidity;BME280_pressure;Samples;Min_cycle;Max_cycle;Signal;HPM_P1;HPM_P2
2022/06/11 00:00:56;;;;;;;;;;;21.20;55.90;;;;;;5154382;27;20352;-52
2022/06/11 00:03:22;;;;;;;;;;;21.50;53.10;;;;;;5167290;27;19927;-51
2022/06/11 00:05:47;;;;;;;;;;;20.30;53.50;;;;;;5143750;27;19927;-50
2022/06/11 00:08:13;;;;;;;;;;;19.90;53.00;;;;;;5168082;27;20643;-50
2022/06/11 00:10:39;;;;;;;;;;;19.80;53.00;;;;;;5143904;27;19927;-50
2022/06/11 00:13:05;;;;;;;;;;;19.60;52.80;;;;;;5164504;27;19923;-48
2022/06/11 00:15:31;;;;;;;;;;;20.20;56.10;;;;;;5168457;27;19923;-49
2022/06/11 00:17:57;;;;;;;;;;;21.00;56.40;;;;;;5143428;27;20362;-54
2022/06/11 00:20:24;;;;;;;;;;;21.60;54.50;;;;;;5164462;27;19953;-50
2022/06/11 00:22:50;;;;;;;;;;;20.40;53.50;;;;;;5170874;27;19979;-49
2022/06/11 00:25:15;;;;;;;;;;;19.90;53.60;;;;;;5165754;27;19945;-48
2022/06/11 00:27:41;;;;;;;;;;;19.80;52.80;;;;;;5171330;27;19931;-46
2022/06/11 00:30:11;;;;;;;;;;;19.50;53.30;;;;;;5165738;27;19951;-49
2022/06/11 00:32:40;;;;;;;;;;;20.50;56.70;;;;;;5165950;27;20312;-49
2022/06/11 00:35:06;;;;;;;;;;;21.30;55.90;;;;;;5171150;27;19956;-56
2022/06/11 00:37:32;;;;;;;;;;;21.30;53.70;;;;;;5163571;27;19935;-48
2022/06/11 00:39:57;;;;;;;;;;;20.20;53.60;;;;;;5146098;27;19923;-47
2022/06/11 00:42:24;;;;;;;;;;;19.80;53.10;;;;;;5170851;27;19927;-47
2022/06/11 00:45:10;;;;;;;;;;;19.70;52.80;;;;;;5165458;27;20010;-49
2022/06/11 00:47:36;;;;;;;;;;;19.90;54.70;;;;;;5165931;27;20217;-49
2022/06/11 00:50:02;;;;;;;;;;;20.90;56.70;;;;;;5171412;27;20335;-54
2022/06/11 00:52:31;;;;;;;;;;;21.50;55.10;;;;;;5146792;27;19970;-48
2022/06/11 00:55:04;;;;;;;;;;;20.60;54.20;;;;;;5167154;27;19939;-56
2022/06/11 00:57:30;;;;;;;;;;;20.20;53.20;;;;;;5150568;27;20297;-48
2022/06/11 00:59:57;;;;;;;;;;;19.60;53.40;;;;;;5165003;27;20357;-47
2022/06/11 01:02:23;;;;;;;;;;;19.50;53.20;;;;;;5135031;27;19922;-47
2022/06/11 01:04:50;;;;;;;;;;;20.40;56.90;;;;;;5165310;27;19923;-48
2022/06/11 01:07:24;;;;;;;;;;;21.20;56.30;;;;;;5165120;27;19983;-49
2022/06/11 01:09:57;;;;;;;;;;;21.40;53.70;;;;;;5151896;27;19951;-51
2022/06/11 01:12:22;;;;;;;;;;;20.20;53.60;;;;;;5128222;27;20106;-47
2022/06/11 01:14:51;;;;;;;;;;;19.80;52.80;;;;;;5163195;27;20286;-48
2022/06/11 01:17:19;;;;;;;;;;;19.50;52.90;;;;;;5151037;27;19922;-49
2022/06/11 01:19:51;;;;;;;;;;;20.30;56.60;;;;;;5146106;27;19934;-49
2022/06/11 01:22:36;;;;;;;;;;;21.20;56.10;;;;;;5164773;27;19945;-51
2022/06/11 01:25:07;;;;;;;;;;;21.50;53.60;;;;;;5170404;27;19930;-47
2022/06/11 01:27:32;;;;;;;;;;;20.10;53.70;;;;;;5146275;27;20305;-47
2022/06/11 01:29:59;;;;;;;;;;;20.00;52.60;;;;;;5163625;27;19929;-47
2022/06/11 01:32:29;;;;;;;;;;;19.70;52.30;;;;;;5149158;27;20293;-49
2022/06/11 01:35:16;;;;;;;;;;;20.30;56.00;;;;;;5128053;27;19949;-47
2022/06/11 01:37:51;;;;;;;;;;;21.20;55.70;;;;;;5146681;27;20373;-47
2022/06/11 01:40:26;;;;;;;;;;;21.50;53.80;;;;;;5150558;27;20163;-56
2022/06/11 01:42:56;;;;;;;;;;;21.60;52.50;;;;;;5164222;27;19923;-57
2022/06/11 01:45:26;;;;;;;;;;;21.60;51.90;;;;;;5144842;27;20390;-56
2022/06/11 01:47:52;;;;;;;;;;;21.60;51.50;;;;;;5169614;27;19927;-56
2022/06/11 01:50:19;;;;;;;;;;;21.60;51.10;;;;;;5143379;27;20241;-58
2022/06/11 01:52:47;;;;;;;;;;;21.60;50.60;;;;;;5168544;27;19927;-59
2022/06/11 01:55:32;;;;;;;;;;;21.60;50.40;;;;;;5163733;27;19937;-56
2022/06/11 01:58:18;;;;;;;;;;;21.80;49.90;;;;;;5164099;27;19930;-58
2022/06/11 02:00:53;;;;;;;;;;;21.80;49.70;;;;;;5149366;27;20055;-58
2022/06/11 02:03:22;;;;;;;;;;;21.70;49.50;;;;;;5169595;27;19923;-58
2022/06/11 02:05:48;;;;;;;;;;;21.80;49.20;;;;;;5163694;27;19975;-58
2022/06/11 02:08:18;;;;;;;;;;;21.80;49.20;;;;;;5167869;27;19931;-56
2022/06/11 02:10:46;;;;;;;;;;;21.80;49.00;;;;;;5144368;27;19922;-55
2022/06/11 02:13:14;;;;;;;;;;;21.80;48.80;;;;;;5144989;27;19929;-58
2022/06/11 02:15:48;;;;;;;;;;;21.80;48.70;;;;;;5150784;27;19922;-58
2022/06/11 02:18:15;;;;;;;;;;;21.80;48.50;;;;;;5163779;27;19936;-57
2022/06/11 02:21:10;;;;;;;;;;;21.80;48.40;;;;;;5143055;27;20060;-58
2022/06/11 02:23:40;;;;;;;;;;;21.80;48.40;;;;;;5145850;27;19937;-56
2022/06/11 02:26:29;;;;;;;;;;;21.80;48.30;;;;;;5162223;27;20021;-56
2022/06/11 02:28:56;;;;;;;;;;;21.80;47.90;;;;;;5148336;27;19927;-58
2022/06/11 02:31:23;;;;;;;;;;;21.90;47.30;;;;;;5149568;27;19934;-57
2022/06/11 02:33:49;;;;;;;;;;;22.00;46.80;;;;;;5163105;27;20016;-57
2022/06/11 02:36:17;;;;;;;;;;;22.10;46.30;;;;;;5163469;27;19929;-56
2022/06/11 02:38:43;;;;;;;;;;;22.10;46.00;;;;;;5168829;27;19929;-58
2022/06/11 02:41:10;;;;;;;;;;;22.10;45.70;;;;;;5162981;27;20373;-58
2022/06/11 02:43:36;;;;;;;;;;;22.10;45.50;;;;;;5163023;27;20145;-57
2022/06/11 02:46:40;;;;;;;;;;;22.20;45.10;;;;;;5166034;27;19926;-57
2022/06/11 02:48:48;;;;;;;;;;;22.20;45.10;;;;;;5162256;27;19922;-57
2022/06/11 02:51:14;;;;;;;;;;;22.10;45.70;;;;;;5144399;27;19975;-55
2022/06/11 02:53:40;;;;;;;;;;;22.10;46.00;;;;;;5168401;27;19926;-57
2022/06/11 02:56:06;;;;;;;;;;;22.10;45.90;;;;;;5162858;27;20018;-58
2022/06/11 02:58:32;;;;;;;;;;;22.10;45.70;;;;;;5168839;27;20294;-57
2022/06/11 03:00:58;;;;;;;;;;;22.10;45.50;;;;;;5162796;27;19931;-57
2022/06/11 03:03:24;;;;;;;;;;;22.10;45.40;;;;;;5161391;27;20394;-57
2022/06/11 03:05:49;;;;;;;;;;;22.20;45.30;;;;;;5167156;27;19966;-57
2022/06/11 03:08:15;;;;;;;;;;;22.10;45.50;;;;;;5162631;27;19987;-57
2022/06/11 03:10:41;;;;;;;;;;;22.10;45.60;;;;;;5162390;27;20133;-55
2022/06/11 03:13:07;;;;;;;;;;;22.10;45.80;;;;;;5168341;27;19975;-57
2022/06/11 03:15:33;;;;;;;;;;;22.20;45.70;;;;;;5162645;27;19929;-57
2022/06/11 03:17:58;;;;;;;;;;;22.10;45.90;;;;;;5168154;27;19927;-56
2022/06/11 03:20:25;;;;;;;;;;;22.10;45.80;;;;;;5162514;27;19954;-56
2022/06/11 03:22:51;;;;;;;;;;;22.00;46.00;;;;;;5160171;27;19926;-58
2022/06/11 03:25:16;;;;;;;;;;;22.10;46.00;;;;;;5167329;27;19974;-56
2022/06/11 03:27:42;;;;;;;;;;;22.00;46.00;;;;;;5162397;27;19999;-55
2022/06/11 03:30:09;;;;;;;;;;;22.00;45.90;;;;;;5162749;27;19922;-56
2022/06/11 03:32:34;;;;;;;;;;;22.00;45.70;;;;;;5168123;27;19933;-57
2022/06/11 03:35:00;;;;;;;;;;;22.10;45.40;;;;;;5162710;27;19927;-57
2022/06/11 03:37:26;;;;;;;;;;;22.20;45.30;;;;;;5168170;27;19923;-57
2022/06/11 03:39:52;;;;;;;;;;;22.10;45.40;;;;;;5161157;27;19929;-56
2022/06/11 03:42:18;;;;;;;;;;;22.10;45.50;;;;;;5161143;27;19923;-58
2022/06/11 03:44:43;;;;;;;;;;;22.10;45.30;;;;;;5167433;27;19930;-57
2022/06/11 03:47:09;;;;;;;;;;;22.10;45.40;;;;;;5162094;27;19926;-57
2022/06/11 03:49:35;;;;;;;;;;;22.10;45.50;;;;;;5162464;27;19922;-58
2022/06/11 03:52:01;;;;;;;;;;;22.20;45.20;;;;;;5168021;27;20391;-56
2022/06/11 03:54:27;;;;;;;;;;;22.20;45.10;;;;;;5165690;27;19945;-59
2022/06/11 03:56:53;;;;;;;;;;;22.20;45.00;;;;;;5170255;27;20389;-57
2022/06/11 03:59:18;;;;;;;;;;;22.20;45.10;;;;;;5166118;27;19926;-57
2022/06/11 04:01:44;;;;;;;;;;;22.10;45.30;;;;;;5146699;27;20010;-57
2022/06/11 04:04:11;;;;;;;;;;;22.10;45.60;;;;;;5171538;27;20382;-57
2022/06/11 04:06:41;;;;;;;;;;;22.10;45.90;;;;;;5166488;27;19978;-58
2022/06/11 04:09:10;;;;;;;;;;;22.10;46.00;;;;;;5166577;27;19933;-54
2022/06/11 04:11:36;;;;;;;;;;;22.10;46.10;;;;;;5171978;27;19981;-57
2022/06/11 04:14:02;;;;;;;;;;;22.10;46.50;;;;;;5166159;27;19931;-57
2022/06/11 04:16:32;;;;;;;;;;;22.10;46.60;;;;;;5164776;27;19930;-58
2022/06/11 04:18:58;;;;;;;;;;;22.10;46.60;;;;;;5151248;27;19923;-55
2022/06/11 04:21:24;;;;;;;;;;;22.10;46.60;;;;;;5165552;27;19930;-58
2022/06/11 04:23:50;;;;;;;;;;;22.10;46.70;;;;;;5171375;27;19984;-56
2022/06/11 04:26:17;;;;;;;;;;;22.10;46.70;;;;;;5165997;27;19927;-56
2022/06/11 04:28:43;;;;;;;;;;;22.10;46.80;;;;;;5165787;27;19933;-57
2022/06/11 04:31:09;;;;;;;;;;;22.20;46.40;;;;;;5171403;27;19927;-56
2022/06/11 04:33:35;;;;;;;;;;;22.30;46.40;;;;;;5165715;27;20017;-55
2022/06/11 04:36:01;;;;;;;;;;;22.30;46.50;;;;;;5163423;27;20443;-56
2022/06/11 04:38:26;;;;;;;;;;;22.30;46.50;;;;;;5170495;27;19929;-55
2022/06/11 04:40:52;;;;;;;;;;;22.20;46.80;;;;;;5165336;27;20298;-58
2022/06/11 04:43:18;;;;;;;;;;;22.20;47.00;;;;;;5169935;27;19922;-55
2022/06/11 04:45:44;;;;;;;;;;;22.10;47.20;;;;;;5167383;27;19923;-55
2022/06/11 04:48:10;;;;;;;;;;;21.10;49.00;;;;;;5165789;27;19927;-57
2022/06/11 04:50:37;;;;;;;;;;;21.10;49.10;;;;;;5170986;27;19922;-57
2022/06/11 04:53:02;;;;;;;;;;;21.30;50.00;;;;;;5164170;27;20297;-57
2022/06/11 04:55:28;;;;;;;;;;;21.40;49.30;;;;;;5163756;27;19927;-57
2022/06/11 04:57:54;;;;;;;;;;;21.50;48.80;;;;;;5170267;27;19949;-59
2022/06/11 05:00:21;;;;;;;;;;;21.50;48.70;;;;;;5165009;27;19927;-57
2022/06/11 05:02:47;;;;;;;;;;;21.50;48.50;;;;;;5166438;27;20017;-59
2022/06/11 05:05:13;;;;;;;;;;;21.50;48.50;;;;;;5170019;27;19966;-59
2022/06/11 05:07:39;;;;;;;;;;;21.50;48.50;;;;;;5165577;27;20022;-59
2022/06/11 05:10:05;;;;;;;;;;;21.60;48.30;;;;;;5170708;27;20294;-58
2022/06/11 05:12:31;;;;;;;;;;;21.60;48.20;;;;;;5163304;27;20017;-59
2022/06/11 05:14:56;;;;;;;;;;;21.60;48.10;;;;;;5164431;27;19922;-58
2022/06/11 05:17:22;;;;;;;;;;;21.60;47.90;;;;;;5170475;27;19938;-59
2022/06/11 05:19:48;;;;;;;;;;;21.60;48.00;;;;;;5165258;27;19923;-57
2022/06/11 05:22:14;;;;;;;;;;;21.60;48.20;;;;;;5165255;27;19929;-56
2022/06/11 05:24:39;;;;;;;;;;;21.70;48.00;;;;;;5170716;27;19923;-59
2022/06/11 05:27:07;;;;;;;;;;;21.60;48.10;;;;;;5165292;27;19923;-59
2022/06/11 05:29:33;;;;;;;;;;;21.70;48.10;;;;;;5169824;27;19922;-57
2022/06/11 05:31:59;;;;;;;;;;;21.70;48.00;;;;;;5163706;27;19922;-58
2022/06/11 05:34:26;;;;;;;;;;;21.70;48.00;;;;;;5164647;27;20325;-59
2022/06/11 05:36:51;;;;;;;;;;;21.60;48.10;;;;;;5170155;27;19933;-57
2022/06/11 05:39:17;;;;;;;;;;;21.70;48.10;;;;;;5165315;27;19923;-57
2022/06/11 05:41:43;;;;;;;;;;;21.70;48.00;;;;;;5165182;27;20195;-58
2022/06/11 05:44:09;;;;;;;;;;;21.80;47.70;;;;;;5170141;27;20014;-59
2022/06/11 05:46:34;;;;;;;;;;;21.80;47.60;;;;;;5164981;27;19923;-59
2022/06/11 05:49:02;;;;;;;;;;;21.80;47.70;;;;;;5168086;27;19923;-58
2022/06/11 05:51:30;;;;;;;;;;;21.80;48.00;;;;;;5145097;27;20013;-58
2022/06/11 05:53:56;;;;;;;;;;;21.80;48.30;;;;;;5164815;27;19937;-60
2022/06/11 05:56:22;;;;;;;;;;;21.70;48.50;;;;;;5169966;27;19988;-57
2022/06/11 05:58:49;;;;;;;;;;;21.80;48.60;;;;;;5146266;27;19966;-57
2022/06/11 06:01:15;;;;;;;;;;;21.80;48.60;;;;;;5164707;27;19923;-58
2022/06/11 06:03:41;;;;;;;;;;;21.80;48.60;;;;;;5169602;27;20289;-57
2022/06/11 06:06:07;;;;;;;;;;;21.50;48.30;;;;;;5163796;27;19935;-56
2022/06/11 06:08:33;;;;;;;;;;;21.30;47.50;;;;;;5164756;27;20216;-57
2022/06/11 06:10:58;;;;;;;;;;;21.30;46.80;;;;;;5167483;27;20005;-56
2022/06/11 06:16:09;;;;;;;;;;;21.50;49.30;;;;;;5169005;27;19965;-57
2022/06/11 06:18:34;;;;;;;;;;;21.70;49.40;;;;;;5164641;27;19923;-59
2022/06/11 06:21:00;;;;;;;;;;;21.60;49.70;;;;;;5164332;27;19923;-57
2022/06/11 06:23:26;;;;;;;;;;;21.60;49.90;;;;;;5150521;27;20393;-57
2022/06/11 06:25:52;;;;;;;;;;;21.70;49.90;;;;;;5162447;27;20320;-56
2022/06/11 06:28:17;;;;;;;;;;;21.60;49.90;;;;;;5163119;27;19923;-58
2022/06/11 06:30:43;;;;;;;;;;;21.70;49.60;;;;;;5168950;27;19922;-58
2022/06/11 06:33:09;;;;;;;;;;;21.80;49.20;;;;;;5164016;27;19934;-60
2022/06/11 06:35:35;;;;;;;;;;;21.80;48.90;;;;;;5167442;27;19975;-56
2022/06/11 06:38:02;;;;;;;;;;;21.80;48.90;;;;;;5166023;27;19923;-57
2022/06/11 06:40:29;;;;;;;;;;;21.80;49.20;;;;;;5163967;27;19929;-58
2022/06/11 06:42:54;;;;;;;;;;;21.80;49.30;;;;;;5168357;27;19945;-58
2022/06/11 06:45:20;;;;;;;;;;;21.80;49.30;;;;;;5162196;27;19923;-56
2022/06/11 06:47:46;;;;;;;;;;;21.80;49.00;;;;;;5163468;27;20002;-59
2022/06/11 06:50:12;;;;;;;;;;;21.90;48.60;;;;;;5168774;27;19934;-57
2022/06/11 06:52:37;;;;;;;;;;;21.90;48.60;;;;;;5164055;27;20396;-58
2022/06/11 06:55:03;;;;;;;;;;;21.90;48.50;;;;;;5164490;27;19954;-56
2022/06/11 06:57:29;;;;;;;;;;;21.80;49.00;;;;;;5168662;27;19979;-57
2022/06/11 06:59:55;;;;;;;;;;;21.90;48.80;;;;;;5163735;27;19981;-56
2022/06/11 07:02:21;;;;;;;;;;;22.00;48.60;;;;;;5167107;27;20013;-56
2022/06/11 07:04:47;;;;;;;;;;;22.00;48.40;;;;;;5162704;27;20942;-55
2022/06/11 07:07:13;;;;;;;;;;;22.00;48.40;;;;;;5163920;27;19934;-56
2022/06/11 07:09:39;;;;;;;;;;;22.00;48.60;;;;;;5168775;27;19922;-54
2022/06/11 07:12:05;;;;;;;;;;;22.00;48.80;;;;;;5164334;27;19960;-52
2022/06/11 07:14:30;;;;;;;;;;;22.00;48.90;;;;;;5164131;27;19977;-55
2022/06/11 07:16:56;;;;;;;;;;;22.00;48.70;;;;;;5168836;27;20341;-54
2022/06/11 07:19:24;;;;;;;;;;;22.10;48.40;;;;;;5163744;27;19930;-51
2022/06/11 07:21:52;;;;;;;;;;;22.10;48.20;;;;;;5166921;27;19929;-51
2022/06/11 07:24:18;;;;;;;;;;;22.20;48.20;;;;;;5163722;27;19923;-55
2022/06/11 07:26:46;;;;;;;;;;;22.10;48.30;;;;;;5164121;27;20013;-54
2022/06/11 07:29:35;;;;;;;;;;;22.10;48.60;;;;;;5152628;27;19987;-53
2022/06/11 07:32:02;;;;;;;;;;;22.00;48.90;;;;;;5155281;27;20017;-51
2022/06/11 07:34:27;;;;;;;;;;;22.10;48.80;;;;;;5169102;27;20010;-54
2022/06/11 07:36:54;;;;;;;;;;;22.10;48.70;;;;;;5172790;27;19993;-47
2022/06/11 07:39:20;;;;;;;;;;;22.00;48.90;;;;;;5165711;27;20079;-46
2022/06/11 07:41:45;;;;;;;;;;;20.30;51.70;;;;;;5166708;27;19934;-51
2022/06/11 07:44:11;;;;;;;;;;;19.80;53.20;;;;;;5172750;27;19927;-46
2022/06/11 07:46:37;;;;;;;;;;;20.60;53.90;;;;;;5149783;27;19923;-48
2022/06/11 07:49:03;;;;;;;;;;;21.30;51.80;;;;;;5172617;27;19923;-49
2022/06/11 07:51:29;;;;;;;;;;;21.70;50.40;;;;;;5148936;27;19970;-48
2022/06/11 07:53:55;;;;;;;;;;;21.80;49.90;;;;;;5168826;27;20021;-49
2022/06/11 07:56:20;;;;;;;;;;;21.80;50.00;;;;;;5172063;27;19923;-49
2022/06/11 07:58:49;;;;;;;;;;;21.80;49.80;;;;;;5167783;27;19923;-47
2022/06/11 08:01:15;;;;;;;;;;;21.80;49.80;;;;;;5168275;27;19975;-49
2022/06/11 08:03:40;;;;;;;;;;;22.00;49.40;;;;;;5153605;27;19978;-48
2022/06/11 08:06:07;;;;;;;;;;;22.00;49.20;;;;;;5149517;27;19963;-49
2022/06/11 08:08:32;;;;;;;;;;;22.00;49.00;;;;;;5151491;27;20385;-55
2022/06/11 08:10:58;;;;;;;;;;;22.00;49.10;;;;;;5171027;27;19963;-47
2022/06/11 08:13:25;;;;;;;;;;;21.60;48.90;;;;;;5168010;27;19931;-50
2022/06/11 08:15:52;;;;;;;;;;;21.40;47.80;;;;;;5170915;27;20438;-48
2022/06/11 08:18:18;;;;;;;;;;;21.40;46.90;;;;;;5167559;27;20413;-48
2022/06/11 08:20:43;;;;;;;;;;;21.60;49.00;;;;;;5167564;27;19929;-48
2022/06/11 08:23:11;;;;;;;;;;;21.80;50.00;;;;;;5171378;27;22204;-46
2022/06/11 08:25:37;;;;;;;;;;;21.90;50.00;;;;;;5168024;27;19937;-48
2022/06/11 08:28:03;;;;;;;;;;;22.00;49.40;;;;;;5168064;27;19975;-49
2022/06/11 08:30:29;;;;;;;;;;;22.00;49.10;;;;;;5153390;27;19975;-52
2022/06/11 08:32:55;;;;;;;;;;;22.10;48.70;;;;;;5167579;27;20308;-51
2022/06/11 08:35:22;;;;;;;;;;;22.10;48.50;;;;;;5170223;27;20216;-49
2022/06/11 08:37:49;;;;;;;;;;;22.20;48.20;;;;;;5147204;27;19923;-44
2022/06/11 08:40:30;;;;;;;;;;;22.20;48.10;;;;;;5165477;27;19926;-46
2022/06/11 08:43:00;;;;;;;;;;;20.90;50.40;;;;;;5171250;27;19923;-48
2022/06/11 08:45:33;;;;;;;;;;;20.20;51.90;;;;;;5167182;27;20293;-45
2022/06/11 08:47:59;;;;;;;;;;;21.00;51.50;;;;;;5167316;27;20005;-45
2022/06/11 08:50:30;;;;;;;;;;;21.60;49.80;;;;;;5171370;27;19927;-45
2022/06/11 08:52:55;;;;;;;;;;;21.80;49.10;;;;;;5146525;27;19938;-47
2022/06/11 08:55:23;;;;;;;;;;;21.90;48.70;;;;;;5166267;27;20581;-47
2022/06/11 08:57:51;;;;;;;;;;;22.00;48.50;;;;;;5152571;27;19929;-46
2022/06/11 09:00:18;;;;;;;;;;;22.20;48.10;;;;;;5166942;27;19949;-46
2022/06/11 09:02:59;;;;;;;;;;;22.20;47.90;;;;;;5150897;27;19931;-54
2022/06/11 09:05:42;;;;;;;;;;;22.20;47.80;;;;;;5135728;27;19945;-47
2022/06/11 09:08:18;;;;;;;;;;;22.10;48.20;;;;;;5167225;27;19927;-46
2022/06/11 09:10:50;;;;;;;;;;;22.10;48.30;;;;;;5166038;27;20076;-48
2022/06/11 09:13:15;;;;;;;;;;;22.10;48.50;;;;;;5150716;27;20377;-47
2022/06/11 09:15:51;;;;;;;;;;;22.20;48.20;;;;;;5165516;27;20284;-49
2022/06/11 09:18:34;;;;;;;;;;;21.80;49.10;;;;;;5147364;27;19965;-55
2022/06/11 09:21:00;;;;;;;;;;;20.20;52.30;;;;;;5170545;27;20005;-49
2022/06/11 09:23:44;;;;;;;;;;;20.80;51.80;;;;;;5164997;27;19923;-48
2022/06/11 09:26:10;;;;;;;;;;;21.50;49.60;;;;;;5164815;27;20121;-47
2022/06/11 09:28:54;;;;;;;;;;;21.90;48.50;;;;;;5169047;27;19939;-46
2022/06/11 09:31:27;;;;;;;;;;;22.10;48.10;;;;;;5163327;27;20461;-47
2022/06/11 09:33:55;;;;;;;;;;;22.00;48.00;;;;;;5164358;27;20017;-47
2022/06/11 09:36:25;;;;;;;;;;;22.00;48.10;;;;;;5169967;27;19934;-47
2022/06/11 09:39:10;;;;;;;;;;;22.10;48.00;;;;;;5164526;27;19929;-48
2022/06/11 09:41:40;;;;;;;;;;;22.20;47.60;;;;;;5164643;27;20384;-46
2022/06/11 09:44:09;;;;;;;;;;;22.20;47.40;;;;;;5170132;27;19933;-47
2022/06/11 09:46:53;;;;;;;;;;;22.20;47.20;;;;;;5164627;27;19948;-49
2022/06/11 09:49:31;;;;;;;;;;;22.20;47.10;;;;;;5163455;27;20029;-52
2022/06/11 09:52:13;;;;;;;;;;;20.30;51.20;;;;;;5148602;27;19923;-47
2022/06/11 09:54:44;;;;;;;;;;;20.00;52.30;;;;;;5128935;27;20291;-48
2022/06/11 09:57:23;;;;;;;;;;;21.10;51.30;;;;;;5145891;27;19978;-45
2022/06/11 09:59:50;;;;;;;;;;;21.70;49.40;;;;;;5151016;27;19930;-47
2022/06/11 10:02:26;;;;;;;;;;;21.90;48.30;;;;;;5145446;27;19971;-49
2022/06/11 10:04:52;;;;;;;;;;;22.00;48.10;;;;;;5163523;27;19927;-51
2022/06/11 10:07:20;;;;;;;;;;;22.00;47.90;;;;;;5148226;27;19933;-46
2022/06/11 10:10:01;;;;;;;;;;;22.10;47.70;;;;;;5144692;27;20017;-47
2022/06/11 10:12:34;;;;;;;;;;;22.10;47.50;;;;;;5165111;27;20377;-54
2022/06/11 10:15:10;;;;;;;;;;;22.00;47.60;;;;;;5169610;27;19929;-47
2022/06/11 10:17:50;;;;;;;;;;;22.20;47.00;;;;;;5144723;27;19933;-48
2022/06/11 10:20:27;;;;;;;;;;;21.80;46.50;;;;;;5143572;27;20334;-48
2022/06/11 10:22:55;;;;;;;;;;;21.80;45.30;;;;;;5150230;27;20319;-47
2022/06/11 10:25:26;;;;;;;;;;;21.80;46.10;;;;;;5141618;27;19927;-50
2022/06/11 10:28:01;;;;;;;;;;;21.90;47.10;;;;;;5165569;27;20937;-52
2022/06/11 10:30:42;;;;;;;;;;;22.10;47.20;;;;;;5168967;27;19923;-46
2022/06/11 10:33:21;;;;;;;;;;;22.20;46.90;;;;;;5144789;27;19997;-46
2022/06/11 10:35:54;;;;;;;;;;;22.30;46.70;;;;;;5145311;27;19922;-48
2022/06/11 10:38:24;;;;;;;;;;;22.20;46.50;;;;;;5169241;27;20067;-47
2022/06/11 10:40:49;;;;;;;;;;;20.70;49.90;;;;;;5144296;27;19931;-48
2022/06/11 10:43:22;;;;;;;;;;;20.00;51.50;;;;;;5147851;27;19934;-53
2022/06/11 10:45:48;;;;;;;;;;;20.30;52.30;;;;;;5147496;27;19980;-47
2022/06/11 10:48:15;;;;;;;;;;;21.30;50.40;;;;;;5144896;27;19933;-46
2022/06/11 10:50:40;;;;;;;;;;;21.80;49.00;;;;;;5149841;27;19970;-47
2022/06/11 10:53:12;;;;;;;;;;;21.90;48.40;;;;;;5163914;27;19977;-47
2022/06/11 10:55:41;;;;;;;;;;;21.90;48.50;;;;;;5145274;27;20474;-46
2022/06/11 10:58:26;;;;;;;;;;;22.00;48.30;;;;;;5168717;27;19929;-47
2022/06/11 11:01:02;;;;;;;;;;;22.10;48.00;;;;;;5162810;27;20041;-46
2022/06/11 11:03:31;;;;;;;;;;;22.10;48.00;;;;;;5144466;27;19967;-47
2022/06/11 11:06:01;;;;;;;;;;;22.20;47.80;;;;;;5168732;27;19929;-48
2022/06/11 11:08:27;;;;;;;;;;;22.20;47.80;;;;;;5163506;27;19929;-52
2022/06/11 11:10:53;;;;;;;;;;;21.90;47.60;;;;;;5162982;27;20114;-49
2022/06/11 11:13:21;;;;;;;;;;;20.50;51.10;;;;;;5148241;27;20010;-49
2022/06/11 11:15:52;;;;;;;;;;;20.00;52.00;;;;;;5142451;27;20537;-48
2022/06/11 11:18:21;;;;;;;;;;;20.80;51.20;;;;;;5162832;27;19923;-54
2022/06/11 11:20:47;;;;;;;;;;;21.50;49.30;;;;;;5165770;27;19922;-48
2022/06/11 11:23:15;;;;;;;;;;;21.90;48.20;;;;;;5142853;27;19923;-49
2022/06/11 11:25:45;;;;;;;;;;;22.00;47.80;;;;;;5167988;27;19929;-48
2022/06/11 11:28:30;;;;;;;;;;;22.10;47.80;;;;;;5162719;27;19927;-48
2022/06/11 11:30:58;;;;;;;;;;;22.10;47.70;;;;;;5162634;27;20361;-48
2022/06/11 11:33:25;;;;;;;;;;;22.20;47.50;;;;;;5168311;27;19923;-47
2022/06/11 11:36:10;;;;;;;;;;;22.20;47.30;;;;;;5162532;27;19983;-47
2022/06/11 11:38:36;;;;;;;;;;;22.20;47.40;;;;;;5160745;27;20413;-49
2022/06/11 11:41:02;;;;;;;;;;;21.90;47.50;;;;;;5167322;27;19930;-48
2022/06/11 11:43:41;;;;;;;;;;;20.60;50.50;;;;;;5162173;27;20387;-48
2022/06/11 11:46:11;;;;;;;;;;;20.20;50.90;;;;;;5162610;27;19933;-50
2022/06/11 11:48:43;;;;;;;;;;;20.70;50.60;;;;;;5146004;27;20264;-46
2022/06/11 11:51:10;;;;;;;;;;;21.50;48.70;;;;;;5144082;27;19923;-44
2022/06/11 11:53:41;;;;;;;;;;;21.80;47.80;;;;;;5162569;27;19923;-45
2022/06/11 11:56:19;;;;;;;;;;;22.00;47.40;;;;;;5166196;27;20308;-47
2022/06/11 11:58:47;;;;;;;;;;;22.10;47.20;;;;;;5161123;27;19974;-46
2022/06/11 12:01:13;;;;;;;;;;;22.10;47.20;;;;;;5161956;27;20127;-44
2022/06/11 12:03:40;;;;;;;;;;;22.30;47.00;;;;;;5149241;27;19923;-46
2022/06/11 12:06:07;;;;;;;;;;;22.20;47.00;;;;;;5162353;27;20345;-46
2022/06/11 12:08:44;;;;;;;;;;;22.30;46.70;;;;;;5164459;27;20444;-55
2022/06/11 12:11:29;;;;;;;;;;;22.40;46.30;;;;;;5168139;27;19923;-48
2022/06/11 12:14:02;;;;;;;;;;;20.70;50.20;;;;;;5161605;27;20516;-46
2022/06/11 12:16:30;;;;;;;;;;;20.30;51.90;;;;;;5164598;27;21221;-52
2022/06/11 12:19:16;;;;;;;;;;;21.30;50.00;;;;;;5171169;27;20403;-48
2022/06/11 12:21:42;;;;;;;;;;;21.80;48.60;;;;;;5165144;27;20446;-48
2022/06/11 12:24:14;;;;;;;;;;;21.80;48.10;;;;;;5166044;27;20291;-51
2022/06/11 12:26:41;;;;;;;;;;;21.60;47.00;;;;;;5171670;27;19950;-48
2022/06/11 12:29:11;;;;;;;;;;;21.50;45.80;;;;;;5147206;27;19947;-49
2022/06/11 12:31:37;;;;;;;;;;;21.80;46.90;;;;;;5152381;27;19922;-54
2022/06/11 12:34:09;;;;;;;;;;;21.90;48.50;;;;;;5163556;27;19929;-49
2022/06/11 12:36:42;;;;;;;;;;;22.10;48.40;;;;;;5146435;27;20301;-48
2022/06/11 12:39:07;;;;;;;;;;;22.30;47.80;;;;;;5152428;27;19927;-48
2022/06/11 12:41:46;;;;;;;;;;;22.30;47.70;;;;;;5165467;27;19922;-50
2022/06/11 12:44:20;;;;;;;;;;;22.30;47.60;;;;;;5165602;27;20286;-50
2022/06/11 12:47:18;;;;;;;;;;;22.30;47.50;;;;;;5171696;27;19922;-50
2022/06/11 12:49:45;;;;;;;;;;;21.50;49.00;;;;;;5112897;27;19947;-51
2022/06/11 12:52:26;;;;;;;;;;;20.30;51.70;;;;;;5163122;27;19927;-48
2022/06/11 12:54:59;;;;;;;;;;;20.10;52.00;;;;;;5151288;27;20241;-50
2022/06/11 12:57:32;;;;;;;;;;;21.30;50.80;;;;;;5150283;27;20377;-49
2022/06/11 12:59:57;;;;;;;;;;;22.50;47.60;;;;;;5146957;27;20292;-48
2022/06/11 13:02:29;;;;;;;;;;;21.20;50.00;;;;;;5170733;27;19923;-50
2022/06/11 13:04:59;;;;;;;;;;;21.10;50.40;;;;;;5147063;27;19956;-50
2022/06/11 13:07:36;;;;;;;;;;;20.80;50.90;;;;;;5165539;27;20377;-48
2022/06/11 13:10:13;;;;;;;;;;;20.80;51.00;;;;;;5168689;27;19922;-48
2022/06/11 13:12:51;;;;;;;;;;;20.80;51.10;;;;;;5145423;27;20017;-47
2022/06/11 13:15:30;;;;;;;;;;;20.70;51.40;;;;;;5165060;27;19922;-46
2022/06/11 13:18:01;;;;;;;;;;;20.80;51.20;;;;;;5170527;27;19922;-51
2022/06/11 13:20:33;;;;;;;;;;;20.80;51.10;;;;;;5165340;27;19927;-46
2022/06/11 13:23:05;;;;;;;;;;;20.60;51.00;;;;;;5144790;27;20892;-46
2022/06/11 13:25:30;;;;;;;;;;;20.80;50.60;;;;;;5169374;27;20022;-47
2022/06/11 13:28:09;;;;;;;;;;;20.70;50.90;;;;;;5163041;27;19935;-46
2022/06/11 13:30:49;;;;;;;;;;;20.70;51.00;;;;;;5145166;27;20390;-48
2022/06/11 13:33:28;;;;;;;;;;;20.80;50.70;;;;;;5169766;27;19929;-47
2022/06/11 13:36:14;;;;;;;;;;;20.70;50.40;;;;;;5164760;27;19929;-52
2022/06/11 13:38:52;;;;;;;;;;;20.70;50.40;;;;;;5111480;27;19930;-46
2022/06/11 13:41:18;;;;;;;;;;;20.80;50.40;;;;;;5170080;27;20005;-51
2022/06/11 13:43:53;;;;;;;;;;;20.60;50.80;;;;;;5164899;27;19926;-46
2022/06/11 13:46:22;;;;;;;;;;;20.70;50.60;;;;;;5163158;27;20017;-50
2022/06/11 13:49:08;;;;;;;;;;;20.70;50.40;;;;;;5168563;27;19936;-50
2022/06/11 13:51:34;;;;;;;;;;;20.60;50.50;;;;;;5113405;27;20005;-45
2022/06/11 13:56:54;;;;;;;;;;;20.60;50.10;;;;;;5150981;27;19978;-52
2022/06/11 13:59:31;;;;;;;;;;;20.60;50.40;;;;;;5167615;27;19929;-46
2022/06/11 14:02:07;;;;;;;;;;;20.80;50.30;;;;;;5164160;27;19937;-45
2022/06/11 14:04:37;;;;;;;;;;;20.70;50.30;;;;;;5148783;27;20083;-54
2022/06/11 14:07:05;;;;;;;;;;;20.80;50.50;;;;;;5165263;27;19934;-46
2022/06/11 14:12:35;;;;;;;;;;;20.60;50.80;;;;;;5152773;27;19923;-52
2022/06/11 14:15:11;;;;;;;;;;;20.80;50.10;;;;;;5169397;27;20024;-51
2022/06/11 14:17:44;;;;;;;;;;;20.60;50.40;;;;;;5164206;27;19923;-47
2022/06/11 14:20:25;;;;;;;;;;;20.80;50.10;;;;;;5165289;27;20375;-52
2022/06/11 14:22:54;;;;;;;;;;;20.80;50.20;;;;;;5167590;27;20374;-46
2022/06/11 14:25:38;;;;;;;;;;;20.80;50.30;;;;;;5162402;27;20389;-48
2022/06/11 14:28:13;;;;;;;;;;;20.60;50.80;;;;;;5163667;27;20026;-46
2022/06/11 14:30:39;;;;;;;;;;;20.80;50.80;;;;;;5169322;27;19929;-48
2022/06/11 14:33:11;;;;;;;;;;;20.90;50.40;;;;;;5164080;27;20058;-46
2022/06/11 14:35:57;;;;;;;;;;;21.00;49.90;;;;;;5166362;27;19927;-53
2022/06/11 14:38:30;;;;;;;;;;;20.90;50.00;;;;;;5167943;27;19923;-47